Tallahassee, FL

6:19 PM EDT on June 02, 2015 (GMT -0400)
Leon High WeatherSTEM | | Change Station
CLOSE
Current Station
Personal Weather Station
Location: Tallahassee, FL
Elevation: 174 ft
Nearby Weather Stations

Elev 174 ft 30.45 °N, 84.28 °W | Updated 6 minutes ago

Rain
Rain
71.9 °F
Feels Like 71.9 °F
N
2.0
Wind Variable Wind from NW
Gusts 4.0 mph

Today
High -- | Low -- °F
--% Chance of Precip.
Yesterday
High -- | Low -- °F
Precip. -- in
6:35 AM 8:34 PM
Full, 100% visible
Pressure 29.94 in
Visibility 10.0 miles
Clouds Scattered Clouds 3100 ft
Mostly Cloudy 6000 ft
Overcast 25000 ft
Dew Point 70 °F
Humidity 93%
Rainfall 0.12 in
Snow Depth Not available.
UV 1.0 out of 12
Pollen 1.20 out of 12
Air Quality Not available.
Flu Activity Sporadic
METAR KTLH 022153Z 26005KT 10SM SCT031 BKN060 OVC250 23/22 A2994 RMK AO2 SLP138 RAB2054RAE20B27E39 TSE45 P0041 T02330222 $

More Conditions Fewer Conditions

Pressure 29.94 in
Visibility 10.0 miles
Clouds Scattered Clouds 3100 ft
Mostly Cloudy 6000 ft
Overcast 25000 ft
Dew Point 70 °F
Humidity 93%
Rainfall 0.12 in
Snow Depth Not available.
UV 1.0 out of 12
Pollen 1.20 out of 12
Air Quality Not available.
Flu Activity Sporadic
METAR KTLH 022153Z 26005KT 10SM SCT031 BKN060 OVC250 23/22 A2994 RMK AO2 SLP138 RAB2054RAE20B27E39 TSE45 P0041 T02330222 $

More Conditions Fewer Conditions

10-Day Weather Forecast

×

Almanac

Astronomy

Jun. 02, 2015 Rise Set
Actual Time
Civil Twilight
Nautical Twilight
Astronomical Twilight
Moon
Length of Visible Light
Length of Day
Tomorrow will be .
, % of the Moon is Illuminated

Today's Extremes

State Highs State Lows

Community

WunderPhotos

Upload Photos

1,826,039 photos uploaded!

WunderBlogs® & News

Nearby

Air Quality

  Air Quality AQ Index Pollutant
Not available.

Snow Depth

Station Depth Elevation

Earthquake Activity

City Distance Mag. Time & Date
Minimum magnitude displayed is 2.5.

Coastal Water Temperatures

Place Temperature

Stations

Nearby Weather Stations

Station Location Temp. Windchill Dew Point Humidity Wind Precip. Elev Updated Type